Time;durP1;ratioP1;P1;durP2;ratioP2;P2;SDS_P1;SDS_P2;PMS_P1;PMS_P2;Temp;Humidity;BMP_temperature;BMP_pressure;BME280_temperature;BME280_humidity;BME280_pressure;Samples;Min_cycle;Max_cycle;Signal;HPM_P1;HPM_P2
2023/07/09 00:01:36;;;;;;;;;;;;;;;22.49;28.54;97826.22;4981585;28;915;-76
2023/07/09 00:04:02;;;;;;;;;;;;;;;22.77;28.29;97828.06;4997228;28;1906;-76
2023/07/09 00:06:27;;;;;;;;;;;;;;;22.51;28.57;97827.31;4981407;28;1020;-76
2023/07/09 00:08:53;;;;;;;;;;;;;;;22.62;28.15;97821.31;4981055;28;1007;-76
2023/07/09 00:11:18;;;;;;;;;;;;;;;22.48;28.46;97821.75;4981155;28;1103;-76
2023/07/09 00:13:44;;;;;;;;;;;;;;;22.64;28.12;97824.50;4976052;28;1357;-77
2023/07/09 00:16:14;;;;;;;;;;;;;;;22.63;28.13;97828.56;4962119;28;1007;-76
2023/07/09 00:18:40;;;;;;;;;;;;;;;22.42;28.20;97823.59;4945663;28;1125;-76
2023/07/09 00:21:05;;;;;;;;;;;;;;;22.65;28.12;97820.41;4961609;28;1148;-76
2023/07/09 00:23:31;;;;;;;;;;;;;;;22.55;28.10;97818.72;4961397;28;1070;-77
2023/07/09 00:25:56;;;;;;;;;;;;;;;22.53;28.12;97818.34;4961937;28;1911;-76
2023/07/09 00:28:22;;;;;;;;;;;;;;;22.36;28.16;97812.81;4963583;28;1306;-76
2023/07/09 00:30:48;;;;;;;;;;;;;;;22.48;28.01;97810.44;4978618;28;912;-76
2023/07/09 00:33:18;;;;;;;;;;;;;;;22.49;28.25;97812.03;4978563;28;1195;-76
2023/07/09 00:35:45;;;;;;;;;;;;;;;22.58;27.96;97814.94;4979044;28;945;-76
2023/07/09 00:38:14;;;;;;;;;;;;;;;22.70;27.74;97811.31;4962714;28;921;-77
2023/07/09 00:40:45;;;;;;;;;;;;;;;22.22;28.58;97816.13;4946430;28;1195;-76
2023/07/09 00:43:12;;;;;;;;;;;;;;;22.55;28.19;97813.03;4977794;28;1348;-76
2023/07/09 00:45:39;;;;;;;;;;;;;;;22.40;27.83;97804.22;4958687;29;1989;-76
2023/07/09 00:48:06;;;;;;;;;;;;;;;22.35;28.20;97808.41;4958964;29;975;-76
2023/07/09 00:50:41;;;;;;;;;;;;;;;22.22;28.36;97803.97;4943231;29;1115;-76
2023/07/09 00:53:20;;;;;;;;;;;;;;;22.46;28.03;97810.09;4959693;28;925;-76
2023/07/09 00:55:48;;;;;;;;;;;;;;;22.28;28.33;97811.50;4975067;28;865;-76
2023/07/09 00:58:17;;;;;;;;;;;;;;;22.56;27.70;97811.78;4968471;28;1661;-76
2023/07/09 01:00:48;;;;;;;;;;;;;;;22.32;28.35;97809.31;4943485;29;1229;-76
2023/07/09 01:03:20;;;;;;;;;;;;;;;22.35;28.03;97813.28;4958345;29;994;-76
2023/07/09 01:05:51;;;;;;;;;;;;;;;22.44;28.00;97804.09;4943031;29;1973;-76
2023/07/09 01:08:17;;;;;;;;;;;;;;;22.53;27.83;97809.84;4958702;29;888;-76
2023/07/09 01:10:44;;;;;;;;;;;;;;;22.49;27.85;97812.81;4959291;29;921;-76
2023/07/09 01:13:10;;;;;;;;;;;;;;;22.47;27.99;97803.97;4956200;28;1347;-76
2023/07/09 01:15:37;;;;;;;;;;;;;;;22.35;28.09;97808.41;4979275;28;909;-76
2023/07/09 01:18:06;;;;;;;;;;;;;;;22.61;27.81;97802.69;4977302;28;970;-76
2023/07/09 01:20:31;;;;;;;;;;;;;;;22.36;28.23;97804.31;4977635;28;1190;-77
2023/07/09 01:23:00;;;;;;;;;;;;;;;22.37;28.13;97810.78;4979556;28;1093;-75
2023/07/09 01:25:27;;;;;;;;;;;;;;;22.54;28.11;97808.63;4964451;28;1918;-76
2023/07/09 01:27:54;;;;;;;;;;;;;;;22.41;28.21;97810.66;4963256;28;1301;-76
2023/07/09 01:30:22;;;;;;;;;;;;;;;22.18;28.75;97818.28;4995857;28;1014;-77
2023/07/09 01:32:49;;;;;;;;;;;;;;;22.35;28.45;97825.41;4963645;28;1038;-77
2023/07/09 01:35:17;;;;;;;;;;;;;;;22.44;28.23;97821.91;4963844;28;883;-76
2023/07/09 01:37:43;;;;;;;;;;;;;;;22.63;27.84;97820.84;4979893;28;980;-77
2023/07/09 01:40:09;;;;;;;;;;;;;;;22.61;28.13;97825.38;4963436;28;1235;-76
2023/07/09 01:42:35;;;;;;;;;;;;;;;22.47;28.29;97826.66;4962719;28;1533;-76
2023/07/09 01:45:01;;;;;;;;;;;;;;;22.56;28.09;97825.97;4979520;28;1940;-76
2023/07/09 01:47:26;;;;;;;;;;;;;;;22.58;28.10;97835.59;4959427;28;1384;-76
2023/07/09 01:49:56;;;;;;;;;;;;;;;22.63;27.93;97834.22;4976157;28;990;-77
2023/07/09 01:52:23;;;;;;;;;;;;;;;22.42;28.15;97843.44;4976436;28;1148;-76
2023/07/09 01:54:49;;;;;;;;;;;;;;;22.35;28.26;97842.44;4926938;29;928;-77
2023/07/09 01:57:16;;;;;;;;;;;;;;;22.25;28.70;97849.22;4930599;29;1557;-76
2023/07/09 01:59:42;;;;;;;;;;;;;;;22.53;28.08;97853.19;4937226;29;1490;-76
2023/07/09 02:02:08;;;;;;;;;;;;;;;22.66;28.07;97841.84;4937540;29;1451;-76
2023/07/09 02:04:33;;;;;;;;;;;;;;;22.36;28.18;97848.88;4953612;29;2090;-76
2023/07/09 02:06:59;;;;;;;;;;;;;;;22.75;27.86;97850.44;4937459;29;982;-76
2023/07/09 02:09:24;;;;;;;;;;;;;;;22.52;28.30;97843.09;4937576;29;1086;-77
2023/07/09 02:11:50;;;;;;;;;;;;;;;22.50;28.37;97856.94;4910197;29;1392;-76
2023/07/09 02:14:15;;;;;;;;;;;;;;;22.54;28.13;97865.34;4902842;29;1003;-77
2023/07/09 02:16:43;;;;;;;;;;;;;;;22.42;28.14;97863.28;4918557;29;1295;-76
2023/07/09 02:19:09;;;;;;;;;;;;;;;22.35;28.56;97856.59;4921064;29;935;-76
2023/07/09 02:21:34;;;;;;;;;;;;;;;22.27;28.55;97863.72;4924889;29;1302;-76
2023/07/09 02:24:02;;;;;;;;;;;;;;;22.47;28.28;97872.00;4909140;29;1906;-76
2023/07/09 02:26:27;;;;;;;;;;;;;;;22.49;28.00;97866.69;4951009;28;1358;-76
2023/07/09 02:28:53;;;;;;;;;;;;;;;22.44;28.27;97883.47;4975464;28;1141;-76
2023/07/09 02:31:19;;;;;;;;;;;;;;;22.58;28.17;97866.00;4959899;28;1299;-77
2023/07/09 02:33:44;;;;;;;;;;;;;;;22.36;28.35;97886.53;4975380;28;1064;-76
2023/07/09 02:36:10;;;;;;;;;;;;;;;22.38;28.44;97873.94;4975876;28;1123;-77
2023/07/09 02:38:36;;;;;;;;;;;;;;;22.60;27.91;97875.66;4990305;28;1219;-77
2023/07/09 02:41:01;;;;;;;;;;;;;;;22.26;28.57;97881.19;4975049;28;1614;-77
2023/07/09 02:43:26;;;;;;;;;;;;;;;22.33;28.06;97881.78;4963920;28;1495;-76
2023/07/09 02:45:52;;;;;;;;;;;;;;;22.53;28.12;97880.75;4990921;28;1918;-77
2023/07/09 02:48:18;;;;;;;;;;;;;;;22.62;28.13;97878.03;4943248;28;1334;-76
2023/07/09 02:50:43;;;;;;;;;;;;;;;22.29;28.43;97883.94;4959625;28;1343;-76
2023/07/09 02:53:09;;;;;;;;;;;;;;;22.36;28.44;97878.03;4939989;29;1144;-76
2023/07/09 02:55:34;;;;;;;;;;;;;;;22.31;28.46;97887.09;4940531;29;1026;-76
2023/07/09 02:58:00;;;;;;;;;;;;;;;22.40;28.38;97882.81;4924317;28;970;-76
2023/07/09 03:00:26;;;;;;;;;;;;;;;22.48;28.33;97889.81;4957695;28;1405;-76
2023/07/09 03:02:51;;;;;;;;;;;;;;;22.50;28.34;97890.16;4927787;29;1405;-76
2023/07/09 03:05:17;;;;;;;;;;;;;;;22.58;28.08;97895.13;4943522;29;1915;-76
2023/07/09 03:07:42;;;;;;;;;;;;;;;22.50;28.35;97898.69;4943565;29;1067;-76
2023/07/09 03:10:08;;;;;;;;;;;;;;;22.54;28.42;97896.53;4943497;29;1081;-76
2023/07/09 03:12:33;;;;;;;;;;;;;;;22.49;28.26;97897.09;4943958;29;1273;-76
2023/07/09 03:14:59;;;;;;;;;;;;;;;22.44;28.55;97894.81;4943545;29;1127;-76
2023/07/09 03:17:24;;;;;;;;;;;;;;;22.50;28.02;97902.31;4958867;28;1518;-76
2023/07/09 03:19:50;;;;;;;;;;;;;;;22.43;28.56;97905.34;4954724;28;1408;-76
2023/07/09 03:22:16;;;;;;;;;;;;;;;22.20;28.68;97897.19;4959438;29;978;-76
2023/07/09 03:24:42;;;;;;;;;;;;;;;22.40;28.32;97894.13;4939942;29;1915;-77
2023/07/09 03:27:07;;;;;;;;;;;;;;;22.49;28.27;97908.44;4908878;29;1352;-76
2023/07/09 03:29:33;;;;;;;;;;;;;;;22.07;29.06;97899.94;4925060;29;1288;-76
2023/07/09 03:31:58;;;;;;;;;;;;;;;22.46;28.38;97898.78;4927394;29;968;-77
2023/07/09 03:34:24;;;;;;;;;;;;;;;20.79;28.69;97653.38;4943217;29;1242;-76
2023/07/09 03:36:49;;;;;;;;;;;;;;;22.57;28.31;97898.44;4927986;29;1351;-75
2023/07/09 03:39:15;;;;;;;;;;;;;;;22.50;28.50;97898.69;4943050;29;985;-77
2023/07/09 03:41:40;;;;;;;;;;;;;;;22.22;29.16;97900.34;4943469;29;1018;-76
2023/07/09 03:44:06;;;;;;;;;;;;;;;22.40;28.79;97899.81;4943306;29;1907;-76
2023/07/09 03:46:31;;;;;;;;;;;;;;;22.22;29.10;97908.84;4956496;29;1576;-76
2023/07/09 03:48:58;;;;;;;;;;;;;;;22.38;28.88;97905.91;4958544;29;1553;-76
2023/07/09 03:51:23;;;;;;;;;;;;;;;22.31;28.81;97898.44;4958976;28;1072;-76
2023/07/09 03:53:48;;;;;;;;;;;;;;;22.30;29.08;97905.34;4958717;29;917;-77
2023/07/09 03:56:14;;;;;;;;;;;;;;;22.31;29.11;97904.09;4959073;29;958;-76
2023/07/09 03:58:39;;;;;;;;;;;;;;;22.35;29.01;97909.66;4958686;29;962;-76
2023/07/09 04:01:05;;;;;;;;;;;;;;;22.31;29.07;97908.97;4943039;29;993;-76
2023/07/09 04:03:31;;;;;;;;;;;;;;;22.71;28.50;97909.31;4967683;28;1220;-76
2023/07/09 04:05:56;;;;;;;;;;;;;;;22.38;28.69;97908.75;4975933;28;1993;-77
2023/07/09 04:08:22;;;;;;;;;;;;;;;22.15;29.05;97907.03;4959667;29;1108;-76
2023/07/09 04:10:47;;;;;;;;;;;;;;;22.53;28.74;97903.41;4976136;28;919;-76
2023/07/09 04:13:12;;;;;;;;;;;;;;;22.40;28.92;97905.47;4975792;28;1066;-76
2023/07/09 04:15:38;;;;;;;;;;;;;;;22.57;28.45;97909.78;4943799;29;1346;-76
2023/07/09 04:18:04;;;;;;;;;;;;;;;22.23;29.10;97901.97;4970505;28;1538;-75
2023/07/09 04:20:29;;;;;;;;;;;;;;;22.48;28.80;97906.81;4979493;28;1402;-76
2023/07/09 04:22:56;;;;;;;;;;;;;;;22.29;29.12;97894.47;4979303;28;1670;-76
2023/07/09 04:25:21;;;;;;;;;;;;;;;22.39;29.28;97899.03;4978652;28;1903;-76
2023/07/09 04:27:47;;;;;;;;;;;;;;;22.17;29.48;97893.19;4962797;28;1129;-77
2023/07/09 04:30:14;;;;;;;;;;;;;;;22.34;29.40;97891.06;4978698;28;929;-76
2023/07/09 04:32:39;;;;;;;;;;;;;;;22.44;29.03;97906.16;4962681;28;963;-76
2023/07/09 04:35:08;;;;;;;;;;;;;;;22.32;29.39;97900.00;4978771;28;900;-77
2023/07/09 04:37:34;;;;;;;;;;;;;;;22.57;29.01;97898.44;4978493;28;985;-77
2023/07/09 04:39:59;;;;;;;;;;;;;;;22.57;29.02;97887.88;4979572;28;909;-77
2023/07/09 04:42:25;;;;;;;;;;;;;;;22.72;28.52;97893.88;4979556;28;1186;-77
2023/07/09 04:44:50;;;;;;;;;;;;;;;22.53;28.97;97886.41;4979493;28;1987;-77
2023/07/09 04:47:16;;;;;;;;;;;;;;;22.50;28.99;97890.16;4979670;28;890;-76
2023/07/09 04:49:42;;;;;;;;;;;;;;;22.57;29.16;97892.75;4978218;28;891;-76
2023/07/09 04:52:10;;;;;;;;;;;;;;;22.52;29.17;97890.50;4978124;28;974;-76
2023/07/09 04:54:37;;;;;;;;;;;;;;;22.24;29.57;97890.16;4962362;28;936;-77
2023/07/09 04:57:03;;;;;;;;;;;;;;;22.22;29.71;97894.69;4978380;28;909;-77
2023/07/09 04:59:28;;;;;;;;;;;;;;;22.35;29.53;97893.44;4977857;28;954;-75
2023/07/09 05:01:54;;;;;;;;;;;;;;;22.30;29.50;97896.84;4962132;28;1068;-76
2023/07/09 05:04:19;;;;;;;;;;;;;;;22.52;29.16;97887.66;4978182;28;1978;-77
2023/07/09 05:06:45;;;;;;;;;;;;;;;22.69;28.99;97897.66;4978187;28;887;-77
2023/07/09 05:09:10;;;;;;;;;;;;;;;22.41;29.72;97895.72;4977903;28;1007;-76
2023/07/09 05:11:36;;;;;;;;;;;;;;;22.69;29.31;97899.66;4961475;28;1101;-77
2023/07/09 05:14:02;;;;;;;;;;;;;;;22.86;29.02;97896.25;4977760;28;1010;-77
2023/07/09 05:16:27;;;;;;;;;;;;;;;22.83;29.16;97894.31;4978212;28;917;-77
2023/07/09 05:18:53;;;;;;;;;;;;;;;22.63;29.37;97907.97;4977839;28;889;-77
2023/07/09 05:21:18;;;;;;;;;;;;;;;22.76;28.89;97894.56;4977476;28;1522;-77
2023/07/09 05:23:44;;;;;;;;;;;;;;;22.69;29.27;97903.31;4978218;28;1025;-76
2023/07/09 05:26:09;;;;;;;;;;;;;;;22.64;29.35;97898.22;4961974;28;1985;-77
2023/07/09 05:28:35;;;;;;;;;;;;;;;22.41;29.55;97901.38;4977518;28;831;-80
2023/07/09 05:31:00;;;;;;;;;;;;;;;22.19;30.13;97904.88;4978917;28;907;-76
2023/07/09 05:33:26;;;;;;;;;;;;;;;22.58;29.74;97894.34;4976444;28;967;-77
2023/07/09 05:35:51;;;;;;;;;;;;;;;22.55;29.60;97901.72;4960963;28;952;-76
2023/07/09 05:38:17;;;;;;;;;;;;;;;22.62;29.58;97903.53;4928721;28;1271;-76
2023/07/09 05:40:42;;;;;;;;;;;;;;;22.35;29.78;97910.47;4976388;28;951;-76
2023/07/09 05:43:08;;;;;;;;;;;;;;;22.49;29.53;97916.94;4956954;29;1119;-76
2023/07/09 05:45:33;;;;;;;;;;;;;;;22.61;29.63;97913.31;4956892;29;1910;-76
2023/07/09 05:47:59;;;;;;;;;;;;;;;22.50;29.58;97915.69;4940940;29;991;-76
2023/07/09 05:50:25;;;;;;;;;;;;;;;22.71;29.23;97920.66;4941156;29;1129;-76
2023/07/09 05:52:50;;;;;;;;;;;;;;;22.63;29.64;97913.63;4957201;29;959;-76
2023/07/09 05:55:16;;;;;;;;;;;;;;;22.76;29.41;97911.59;4956790;29;957;-76
2023/07/09 05:57:41;;;;;;;;;;;;;;;22.77;29.15;97913.19;4956778;29;1092;-77
2023/07/09 06:00:08;;;;;;;;;;;;;;;22.75;29.52;97915.69;4956455;29;996;-76
2023/07/09 06:02:40;;;;;;;;;;;;;;;22.70;29.52;97916.25;4956935;28;964;-76
2023/07/09 06:05:10;;;;;;;;;;;;;;;22.57;29.65;97921.91;4955809;28;1884;-76
2023/07/09 06:07:37;;;;;;;;;;;;;;;22.54;29.79;97916.38;4943940;28;1222;-76
2023/07/09 06:10:02;;;;;;;;;;;;;;;22.64;29.68;97926.59;4975670;28;955;-76
2023/07/09 06:12:28;;;;;;;;;;;;;;;22.61;29.56;97927.47;4975943;28;965;-77
2023/07/09 06:14:53;;;;;;;;;;;;;;;22.65;29.55;97921.69;4976076;28;1000;-77
2023/07/09 06:17:19;;;;;;;;;;;;;;;22.67;29.72;97925.66;4976192;28;937;-77
2023/07/09 06:19:45;;;;;;;;;;;;;;;22.49;30.04;97928.28;4962809;28;925;-76
2023/07/09 06:22:10;;;;;;;;;;;;;;;22.50;29.94;97927.03;4979324;28;1028;-76
2023/07/09 06:24:36;;;;;;;;;;;;;;;22.29;30.12;97917.94;4979432;28;1914;-76
2023/07/09 06:27:01;;;;;;;;;;;;;;;22.53;29.96;97915.56;4979098;28;943;-77
2023/07/09 06:29:27;;;;;;;;;;;;;;;22.23;30.62;97925.41;4979548;28;1115;-76
2023/07/09 06:31:52;;;;;;;;;;;;;;;22.63;30.08;97924.97;4995615;28;1250;-78
2023/07/09 06:34:18;;;;;;;;;;;;;;;22.80;29.75;97937.81;4981471;28;1223;-76
2023/07/09 06:36:43;;;;;;;;;;;;;;;22.83;29.45;97919.84;4983059;28;1187;-76
2023/07/09 06:39:09;;;;;;;;;;;;;;;22.66;30.07;97924.06;4982887;28;1001;-76
2023/07/09 06:41:38;;;;;;;;;;;;;;;22.66;30.02;97917.63;4982535;28;972;-76
2023/07/09 06:44:06;;;;;;;;;;;;;;;22.82;29.77;97926.78;4983173;28;1910;-77
2023/07/09 06:46:31;;;;;;;;;;;;;;;22.68;29.81;97927.25;4996626;28;870;-76
2023/07/09 06:48:57;;;;;;;;;;;;;;;22.46;30.13;97929.97;4981669;28;903;-76
2023/07/09 06:51:22;;;;;;;;;;;;;;;22.40;30.17;97922.50;4981463;28;891;-77
2023/07/09 06:53:50;;;;;;;;;;;;;;;22.41;30.23;97929.75;4980653;28;980;-77
2023/07/09 06:56:15;;;;;;;;;;;;;;;22.66;30.14;97924.06;4980269;28;886;-76
2023/07/09 06:58:41;;;;;;;;;;;;;;;22.90;29.43;97932.25;4980340;28;904;-77
2023/07/09 07:01:07;;;;;;;;;;;;;;;22.61;30.14;97918.97;4964610;28;1135;-76
2023/07/09 07:03:32;;;;;;;;;;;;;;;22.75;29.88;97920.56;4981256;28;922;-76
2023/07/09 07:05:58;;;;;;;;;;;;;;;22.52;30.26;97918.84;4946779;28;1918;-76
2023/07/09 07:08:24;;;;;;;;;;;;;;;22.65;30.30;97911.16;4963105;28;960;-77
2023/07/09 07:10:50;;;;;;;;;;;;;;;22.32;30.63;97911.34;4946902;28;1111;-77
2023/07/09 07:13:15;;;;;;;;;;;;;;;22.62;30.10;97906.38;4978886;28;1022;-77
2023/07/09 07:15:41;;;;;;;;;;;;;;;22.86;30.14;97904.78;4962793;28;1097;-76
2023/07/09 07:18:06;;;;;;;;;;;;;;;22.72;30.30;97902.41;4962619;28;1159;-77
2023/07/09 07:20:32;;;;;;;;;;;;;;;22.73;30.25;97892.63;4943493;29;1210;-76
2023/07/09 07:22:57;;;;;;;;;;;;;;;22.49;30.88;97897.09;4943281;29;951;-77
2023/07/09 07:25:23;;;;;;;;;;;;;;;22.46;30.58;97906.50;4958924;29;1973;-76
2023/07/09 07:27:49;;;;;;;;;;;;;;;22.52;30.67;97918.84;4959430;29;862;-77
2023/07/09 07:30:14;;;;;;;;;;;;;;;22.83;29.98;97900.00;4959036;28;1013;-77
2023/07/09 07:32:46;;;;;;;;;;;;;;;22.74;30.44;97897.09;4959228;29;966;-77
2023/07/09 07:35:13;;;;;;;;;;;;;;;22.74;30.28;97908.44;4943125;29;988;-77
2023/07/09 07:37:39;;;;;;;;;;;;;;;22.85;30.02;97903.19;4974767;28;1234;-76
2023/07/09 07:40:04;;;;;;;;;;;;;;;22.75;30.28;97915.69;4962580;28;877;-76
2023/07/09 07:42:30;;;;;;;;;;;;;;;22.76;30.39;97908.75;4946616;28;1177;-76
2023/07/09 07:44:55;;;;;;;;;;;;;;;22.68;30.52;97915.09;4961613;28;1969;-76
2023/07/09 07:47:21;;;;;;;;;;;;;;;22.68;30.39;97903.75;4946272;28;942;-77
2023/07/09 07:49:47;;;;;;;;;;;;;;;22.70;30.57;97902.06;4962484;28;944;-76
2023/07/09 07:52:12;;;;;;;;;;;;;;;22.55;30.86;97913.06;4975416;28;980;-76
2023/07/09 07:54:38;;;;;;;;;;;;;;;22.80;30.16;97903.75;4963236;28;913;-76
2023/07/09 07:57:04;;;;;;;;;;;;;;;22.88;30.18;97912.84;4963190;28;1032;-76
2023/07/09 07:59:29;;;;;;;;;;;;;;;22.78;30.41;97911.13;4979236;28;942;-76
2023/07/09 08:01:55;;;;;;;;;;;;;;;22.84;29.88;97907.25;4980575;28;1064;-76
2023/07/09 08:04:20;;;;;;;;;;;;;;;22.73;30.26;97895.47;4979741;28;1969;-76
2023/07/09 08:06:46;;;;;;;;;;;;;;;22.91;29.98;97911.16;4979249;28;929;-77
2023/07/09 08:09:11;;;;;;;;;;;;;;;22.67;30.25;97914.31;4980555;28;900;-76
2023/07/09 08:11:37;;;;;;;;;;;;;;;22.68;30.05;97898.88;4979098;28;860;-76
2023/07/09 08:14:02;;;;;;;;;;;;;;;22.84;30.08;97901.59;4978673;28;990;-77
2023/07/09 08:16:28;;;;;;;;;;;;;;;22.74;30.19;97914.09;4978827;28;941;-76
2023/07/09 08:18:54;;;;;;;;;;;;;;;22.77;29.97;97918.06;4978512;28;888;-76
2023/07/09 08:21:19;;;;;;;;;;;;;;;22.85;30.24;97913.75;4977953;28;1260;-76
2023/07/09 08:23:45;;;;;;;;;;;;;;;22.58;30.54;97917.03;4978807;28;822;-76
2023/07/09 08:26:11;;;;;;;;;;;;;;;22.55;30.44;97923.63;4979000;28;1914;-77
2023/07/09 08:28:36;;;;;;;;;;;;;;;22.70;30.59;97924.75;4978625;28;981;-76
2023/07/09 08:31:02;;;;;;;;;;;;;;;22.54;31.03;97920.00;4978451;28;902;-76
2023/07/09 08:33:28;;;;;;;;;;;;;;;22.70;30.53;97916.25;4978469;28;980;-76
2023/07/09 08:35:53;;;;;;;;;;;;;;;23.10;29.99;97912.91;4979696;28;933;-76
2023/07/09 08:38:19;;;;;;;;;;;;;;;22.71;30.46;97915.00;4979617;28;916;-76
2023/07/09 08:41:08;;;;;;;;;;;;;;;22.75;30.52;97909.22;4979511;28;887;-76
2023/07/09 08:43:35;;;;;;;;;;;;;;;22.75;30.28;97897.88;4938525;29;1101;-76
2023/07/09 08:46:12;;;;;;;;;;;;;;;22.96;30.00;97911.38;4938940;29;1907;-76
2023/07/09 08:48:39;;;;;;;;;;;;;;;22.85;30.40;97910.91;4923229;29;1006;-76
2023/07/09 08:51:10;;;;;;;;;;;;;;;22.79;30.15;97927.69;4900672;29;955;-75
2023/07/09 08:53:39;;;;;;;;;;;;;;;22.71;30.53;97912.16;4900454;29;1038;-76
2023/07/09 08:56:06;;;;;;;;;;;;;;;22.86;30.60;97913.28;4900223;29;971;-76
2023/07/09 08:58:32;;;;;;;;;;;;;;;22.80;30.62;97920.00;4884640;29;925;-76
2023/07/09 09:00:59;;;;;;;;;;;;;;;22.91;30.23;97923.31;4900674;29;1030;-76
2023/07/09 09:03:31;;;;;;;;;;;;;;;23.07;30.03;97925.19;4900552;29;1002;-76
2023/07/09 09:05:56;;;;;;;;;;;;;;;22.67;31.07;97925.66;4900534;29;1988;-77
2023/07/09 09:08:25;;;;;;;;;;;;;;;23.06;30.07;97923.63;4884913;29;1129;-76
2023/07/09 09:11:08;;;;;;;;;;;;;;;22.94;30.52;97938.59;4900182;29;972;-76
2023/07/09 09:13:35;;;;;;;;;;;;;;;22.82;30.62;97938.13;4900109;29;956;-76
2023/07/09 09:16:01;;;;;;;;;;;;;;;23.00;30.42;97948.13;4884639;29;1618;-76
2023/07/09 09:18:27;;;;;;;;;;;;;;;23.00;30.17;97943.28;4884760;29;1265;-76
2023/07/09 09:20:57;;;;;;;;;;;;;;;22.87;30.53;97946.06;4912398;28;1422;-76
2023/07/09 09:23:35;;;;;;;;;;;;;;;23.12;30.21;97941.66;4977576;28;1079;-76
2023/07/09 09:26:01;;;;;;;;;;;;;;;23.22;29.78;97946.19;4961694;28;1922;-76
2023/07/09 09:28:27;;;;;;;;;;;;;;;23.20;29.93;97957.19;4963485;28;1156;-76
2023/07/09 09:30:52;;;;;;;;;;;;;;;22.81;30.35;97962.09;4979842;28;1104;-76
2023/07/09 09:33:18;;;;;;;;;;;;;;;22.90;30.54;97966.28;4996066;28;998;-76
2023/07/09 09:35:43;;;;;;;;;;;;;;;23.01;30.05;97966.75;4996005;28;1049;-75
2023/07/09 09:38:10;;;;;;;;;;;;;;;23.05;30.23;97964.56;4995245;28;985;-77
2023/07/09 09:40:36;;;;;;;;;;;;;;;22.79;30.42;97966.59;4956220;29;1080;-76
2023/07/09 09:43:02;;;;;;;;;;;;;;;23.26;29.92;97963.88;4940279;29;1077;-76
2023/07/09 09:45:28;;;;;;;;;;;;;;;22.96;30.45;97970.16;4940458;29;1911;-76
2023/07/09 09:47:57;;;;;;;;;;;;;;;22.96;30.70;97970.16;4940422;29;1257;-76
2023/07/09 09:50:23;;;;;;;;;;;;;;;23.09;30.55;97973.78;4940436;28;935;-77
2023/07/09 09:52:48;;;;;;;;;;;;;;;23.12;30.52;97975.72;4940363;28;965;-76
2023/07/09 09:55:22;;;;;;;;;;;;;;;22.92;30.53;97980.84;4924629;29;1144;-77
2023/07/09 09:57:49;;;;;;;;;;;;;;;23.00;30.46;97982.19;4940855;29;950;-77
2023/07/09 10:00:17;;;;;;;;;;;;;;;22.86;30.93;97978.53;4924733;29;916;-76
2023/07/09 10:02:45;;;;;;;;;;;;;;;22.82;30.94;97977.84;4921309;29;1219;-76
2023/07/09 10:05:14;;;;;;;;;;;;;;;22.87;30.77;97985.78;4937201;29;1986;-77
2023/07/09 10:07:42;;;;;;;;;;;;;;;22.96;30.86;97982.31;4937115;29;1045;-76
2023/07/09 10:10:13;;;;;;;;;;;;;;;22.96;30.51;97981.53;4937050;29;992;-77
2023/07/09 10:12:40;;;;;;;;;;;;;;;22.92;30.48;97973.13;4937334;29;897;-77
2023/07/09 10:15:26;;;;;;;;;;;;;;;23.01;30.55;97972.44;4939253;29;894;-76
2023/07/09 10:17:59;;;;;;;;;;;;;;;22.88;30.61;97983.78;4898864;29;1038;-76
2023/07/09 10:20:25;;;;;;;;;;;;;;;23.23;30.23;97967.63;4914546;29;1188;-77
2023/07/09 10:23:09;;;;;;;;;;;;;;;23.31;30.04;97977.50;4914591;29;893;-76
2023/07/09 10:25:44;;;;;;;;;;;;;;;23.26;30.25;97972.41;4921795;29;1965;-77
2023/07/09 10:28:15;;;;;;;;;;;;;;;23.11;30.38;97985.47;4920778;29;836;-76
2023/07/09 10:30:43;;;;;;;;;;;;;;;23.09;30.73;97985.13;4936839;29;820;-77
2023/07/09 10:33:09;;;;;;;;;;;;;;;23.17;30.52;97975.13;4921217;29;848;-77
2023/07/09 10:35:43;;;;;;;;;;;;;;;23.08;30.49;97981.50;4920834;29;942;-76
2023/07/09 10:38:13;;;;;;;;;;;;;;;22.94;30.84;97978.31;4905103;29;1058;-77
2023/07/09 10:40:47;;;;;;;;;;;;;;;23.11;30.44;97986.28;4936932;29;823;-77
2023/07/09 10:43:33;;;;;;;;;;;;;;;23.08;30.39;97966.50;4921038;29;1087;-76
2023/07/09 10:46:00;;;;;;;;;;;;;;;23.01;30.71;97976.06;4920817;29;1922;-77
2023/07/09 10:48:31;;;;;;;;;;;;;;;22.99;30.84;97969.25;4920663;29;1017;-77
2023/07/09 10:50:56;;;;;;;;;;;;;;;22.96;30.55;97990.03;4902110;29;891;-77
2023/07/09 10:53:22;;;;;;;;;;;;;;;22.94;30.85;97979.13;4917613;29;1056;-76
2023/07/09 10:55:50;;;;;;;;;;;;;;;23.03;30.46;97969.94;4951978;29;1054;-77
2023/07/09 10:58:16;;;;;;;;;;;;;;;23.25;30.29;97987.81;4956981;28;894;-77
2023/07/09 11:00:41;;;;;;;;;;;;;;;23.09;30.50;97983.06;4958131;28;933;-78
2023/07/09 11:03:17;;;;;;;;;;;;;;;22.92;30.78;97966.66;4957229;29;921;-77
2023/07/09 11:05:43;;;;;;;;;;;;;;;22.93;30.79;97965.41;4957055;28;1915;-76
2023/07/09 11:08:11;;;;;;;;;;;;;;;23.28;30.17;97972.72;4957075;29;952;-76
2023/07/09 11:10:38;;;;;;;;;;;;;;;23.39;29.91;97969.53;4957117;29;981;-76
2023/07/09 11:13:03;;;;;;;;;;;;;;;22.96;30.78;97964.50;4956861;29;1402;-76
2023/07/09 11:15:36;;;;;;;;;;;;;;;23.12;30.69;97984.22;4957971;28;820;-77
2023/07/09 11:18:03;;;;;;;;;;;;;;;23.13;30.58;97985.81;4957235;29;948;-76
2023/07/09 11:20:32;;;;;;;;;;;;;;;23.03;30.71;97986.94;4957727;28;1178;-76
2023/07/09 11:23:01;;;;;;;;;;;;;;;23.17;30.67;97975.13;4960829;29;943;-77
2023/07/09 11:25:28;;;;;;;;;;;;;;;22.90;30.66;97977.63;4961469;28;1902;-77
2023/07/09 11:27:57;;;;;;;;;;;;;;;22.90;30.78;97991.81;4961571;28;946;-77
2023/07/09 11:30:24;;;;;;;;;;;;;;;23.21;30.46;97987.19;4961131;29;957;-76
2023/07/09 11:33:12;;;;;;;;;;;;;;;23.04;30.54;97982.84;4961517;28;938;-77
2023/07/09 11:36:01;;;;;;;;;;;;;;;23.17;30.63;97988.53;4961030;28;937;-76
2023/07/09 11:38:26;;;;;;;;;;;;;;;23.14;30.62;97993.06;4939689;29;990;-77
2023/07/09 11:40:53;;;;;;;;;;;;;;;23.16;30.73;97989.75;4939937;29;1016;-77
2023/07/09 11:43:48;;;;;;;;;;;;;;;23.28;30.46;97986.94;4924210;29;1000;-77
2023/07/09 11:46:16;;;;;;;;;;;;;;;23.32;30.25;97981.13;4883076;29;1931;-77
2023/07/09 11:48:42;;;;;;;;;;;;;;;23.13;30.83;97985.81;4851865;29;1417;-77
2023/07/09 11:51:17;;;;;;;;;;;;;;;23.05;30.84;97995.78;4879280;29;1004;-77
2023/07/09 11:53:55;;;;;;;;;;;;;;;23.23;30.25;97983.88;4886121;29;993;-77
2023/07/09 11:56:21;;;;;;;;;;;;;;;23.07;30.71;97987.63;4901912;29;1050;-77
2023/07/09 11:58:54;;;;;;;;;;;;;;;23.29;30.46;97977.16;4886108;29;1074;-76
2023/07/09 12:01:21;;;;;;;;;;;;;;;23.05;30.63;97978.78;4886317;29;959;-77
2023/07/09 12:03:46;;;;;;;;;;;;;;;22.96;30.85;97981.53;4885921;29;1095;-78
2023/07/09 12:06:23;;;;;;;;;;;;;;;22.86;31.17;97975.69;4870436;29;1981;-77
2023/07/09 12:08:49;;;;;;;;;;;;;;;22.88;31.01;97981.72;4870468;29;1189;-77
2023/07/09 12:11:22;;;;;;;;;;;;;;;22.95;31.07;97980.72;4885854;29;970;-77
2023/07/09 12:13:48;;;;;;;;;;;;;;;23.31;30.28;97971.00;4901441;29;887;-76
2023/07/09 12:16:29;;;;;;;;;;;;;;;23.08;30.82;97966.50;4901580;29;1126;-76
2023/07/09 12:18:54;;;;;;;;;;;;;;;23.06;30.48;97969.03;4889015;29;1002;-76
2023/07/09 12:21:20;;;;;;;;;;;;;;;23.06;30.92;97969.03;4904337;29;1074;-77
2023/07/09 12:23:46;;;;;;;;;;;;;;;23.02;30.66;97979.69;4957924;29;1482;-76
2023/07/09 12:26:12;;;;;;;;;;;;;;;22.88;30.91;97981.72;4959597;29;1911;-77
2023/07/09 12:28:38;;;;;;;;;;;;;;;23.16;30.43;97967.88;4959008;29;927;-76
2023/07/09 12:31:03;;;;;;;;;;;;;;;23.38;30.06;97985.75;4958674;28;886;-77
2023/07/09 12:33:29;;;;;;;;;;;;;;;23.14;30.47;97976.03;4943052;29;920;-77
2023/07/09 12:36:04;;;;;;;;;;;;;;;23.34;30.20;97978.63;4943128;29;947;-77
2023/07/09 12:38:30;;;;;;;;;;;;;;;22.69;31.25;97977.06;4943385;29;1221;-77
2023/07/09 12:40:55;;;;;;;;;;;;;;;22.85;30.92;97982.63;4959033;29;882;-76
2023/07/09 12:43:31;;;;;;;;;;;;;;;22.98;30.79;97979.00;4943186;29;1101;-78
2023/07/09 12:45:57;;;;;;;;;;;;;;;23.27;29.91;97968.31;4959280;29;1918;-77
2023/07/09 12:48:23;;;;;;;;;;;;;;;23.18;30.15;97979.56;4943067;29;1123;-77
2023/07/09 12:50:49;;;;;;;;;;;;;;;23.41;29.88;97967.00;4943481;29;860;-77
2023/07/09 12:53:16;;;;;;;;;;;;;;;23.19;30.51;97961.28;4927036;29;1263;-77
2023/07/09 12:55:42;;;;;;;;;;;;;;;23.06;30.52;97960.50;4943030;29;1116;-77
2023/07/09 12:58:15;;;;;;;;;;;;;;;23.24;30.20;97979.78;4958718;28;880;-77
2023/07/09 13:00:40;;;;;;;;;;;;;;;23.08;30.45;97966.50;4958557;29;985;-77